Time;durP1;ratioP1;P1;durP2;ratioP2;P2;SDS_P1;SDS_P2;PMS_P1;PMS_P2;Temp;Humidity;BMP_temperature;BMP_pressure;BME280_temperature;BME280_humidity;BME280_pressure;Samples;Min_cycle;Max_cycle;Signal;HPM_P1;HPM_P2
2021/04/16 00:00:01;;;;;;;13.87;7.90;;;;;;;-0.64;90.51;96002.50;5151677;27;20725;-62
2021/04/16 00:02:28;;;;;;;13.27;8.23;;;;;;;-0.68;91.26;96003.91;5151851;27;20200;-62
2021/04/16 00:04:55;;;;;;;13.90;7.60;;;;;;;-0.61;90.46;96002.09;5151826;27;20633;-63
2021/04/16 00:07:22;;;;;;;14.83;8.40;;;;;;;-0.64;89.75;96005.03;5151780;27;20198;-63
2021/04/16 00:09:48;;;;;;;14.43;8.23;;;;;;;-0.69;89.68;96004.91;5151740;27;20194;-63
2021/04/16 00:12:16;;;;;;;11.77;8.60;;;;;;;-0.70;90.38;96009.25;5152546;27;20193;-64
2021/04/16 00:14:43;;;;;;;14.60;8.70;;;;;;;-0.75;90.67;96003.22;5155538;27;20236;-63
2021/04/16 00:17:11;;;;;;;15.93;8.93;;;;;;;-0.74;91.60;96002.19;5155773;27;20233;-63
2021/04/16 00:19:37;;;;;;;17.20;9.67;;;;;;;-0.84;91.30;95999.34;5155808;27;20189;-63
2021/04/16 00:22:04;;;;;;;21.83;11.27;;;;;;;-0.90;90.58;96003.53;5155677;27;20197;-63
2021/04/16 00:24:31;;;;;;;14.37;9.47;;;;;;;-0.98;90.72;96007.09;5155686;27;20228;-63
2021/04/16 00:26:58;;;;;;;15.30;9.00;;;;;;;-1.08;91.33;95996.59;5155492;27;20193;-62
2021/04/16 00:29:26;;;;;;;17.37;9.20;;;;;;;-1.22;91.96;95995.13;5155781;27;20189;-64
2021/04/16 00:31:53;;;;;;;16.40;10.40;;;;;;;-1.26;91.84;95993.97;5155471;27;20201;-63
2021/04/16 00:34:22;;;;;;;13.83;9.57;;;;;;;-1.24;92.50;95994.53;5155457;27;20684;-62
2021/04/16 00:36:49;;;;;;;20.57;10.77;;;;;;;-1.24;92.27;95994.53;5155447;27;20203;-63
2021/04/16 00:39:19;;;;;;;19.77;9.73;;;;;;;-1.24;92.26;95999.63;5155236;27;20664;-63
2021/04/16 00:41:46;;;;;;;18.67;9.10;;;;;;;-1.26;92.14;95999.06;5155409;27;20197;-63
2021/04/16 00:44:13;;;;;;;15.90;10.50;;;;;;;-1.40;92.48;95993.28;5155032;27;20312;-62
2021/04/16 00:46:46;;;;;;;17.33;10.53;;;;;;;-1.27;92.25;95997.50;5155140;27;20750;-62
2021/04/16 00:49:18;;;;;;;29.27;13.07;;;;;;;-1.21;91.75;96001.00;5155372;27;20579;-63
2021/04/16 00:51:48;;;;;;;28.70;12.73;;;;;;;-1.17;91.80;96008.03;5155192;27;20200;-63
2021/04/16 00:54:17;;;;;;;19.80;10.70;;;;;;;-1.26;92.26;96014.38;5154842;27;20194;-62
2021/04/16 00:56:44;;;;;;;16.77;10.63;;;;;;;-1.37;92.66;96017.56;5155125;27;20197;-63
2021/04/16 00:59:12;;;;;;;14.07;9.47;;;;;;;-1.36;91.99;96019.94;5154731;27;20602;-63
2021/04/16 01:01:39;;;;;;;15.13;10.27;;;;;;;-1.44;92.73;96009.97;5155145;27;20679;-63
2021/04/16 01:04:07;;;;;;;16.73;10.17;;;;;;;-1.30;93.56;96005.59;5154843;27;20317;-63
2021/04/16 01:06:34;;;;;;;18.17;10.20;;;;;;;-1.23;92.85;96008.84;5155081;27;20193;-63
2021/04/16 01:09:01;;;;;;;17.07;9.73;;;;;;;-1.21;92.64;96004.34;5155070;27;20193;-63
2021/04/16 01:11:29;;;;;;;17.00;10.33;;;;;;;-1.15;92.07;96000.97;5155076;27;20194;-63
2021/04/16 01:13:56;;;;;;;14.77;10.03;;;;;;;-1.08;92.09;95996.59;5154692;27;20692;-63
2021/04/16 01:16:29;;;;;;;18.83;9.83;;;;;;;-1.09;92.16;96000.13;5154386;27;20236;-63
2021/04/16 01:18:58;;;;;;;13.87;9.43;;;;;;;-1.05;91.73;95996.19;5154616;27;20194;-62
2021/04/16 01:21:33;;;;;;;18.50;10.40;;;;;;;-1.08;92.07;95999.13;5154928;27;20225;-63
2021/04/16 01:24:13;;;;;;;19.40;9.90;;;;;;;-0.97;92.03;96001.00;5154167;27;20235;-63
2021/04/16 01:26:40;;;;;;;26.67;11.57;;;;;;;-0.96;91.48;96002.59;5154317;27;20675;-63
2021/04/16 01:29:08;;;;;;;19.97;12.10;;;;;;;-0.84;91.61;96001.88;5154289;27;20329;-63
2021/04/16 01:31:35;;;;;;;22.77;11.73;;;;;;;-0.96;91.53;96001.81;5154218;27;20192;-62
2021/04/16 01:34:02;;;;;;;19.43;11.53;;;;;;;-0.97;91.51;96006.13;5154534;27;20209;-63
2021/04/16 01:36:34;;;;;;;18.87;11.60;;;;;;;-0.95;91.39;96001.56;5154234;27;20277;-63
2021/04/16 01:39:04;;;;;;;20.63;11.43;;;;;;;-0.90;91.27;96006.06;5154226;27;20193;-63
2021/04/16 01:41:32;;;;;;;17.23;10.47;;;;;;;-0.80;90.93;96005.59;5154093;27;20190;-63
2021/04/16 01:44:02;;;;;;;18.87;10.77;;;;;;;-0.88;90.49;96004.09;5154109;27;20261;-62
2021/04/16 01:46:29;;;;;;;16.40;11.23;;;;;;;-0.90;90.85;96006.84;5154188;27;20241;-61
2021/04/16 01:48:57;;;;;;;13.90;9.67;;;;;;;-0.84;91.08;96010.31;5154279;27;20207;-63
2021/04/16 01:51:27;;;;;;;16.83;10.87;;;;;;;-0.90;91.64;96011.94;5154030;27;20197;-63
2021/04/16 01:54:06;;;;;;;19.23;10.87;;;;;;;-0.94;91.50;96003.13;5153934;27;20201;-63
2021/04/16 01:56:34;;;;;;;17.73;10.80;;;;;;;-1.11;91.13;95997.00;5153775;27;20201;-63
2021/04/16 01:59:01;;;;;;;16.63;9.97;;;;;;;-1.14;91.68;95992.31;5153765;27;20604;-62
2021/04/16 02:01:27;;;;;;;16.97;10.27;;;;;;;-1.08;91.92;95996.59;5153942;27;20717;-63
2021/04/16 02:03:54;;;;;;;15.77;10.67;;;;;;;-1.05;92.10;96003.06;5153593;27;20273;-63
2021/04/16 02:06:21;;;;;;;17.40;10.47;;;;;;;-1.04;91.07;95999.50;5153834;27;20304;-62
2021/04/16 02:08:48;;;;;;;16.27;10.47;;;;;;;-1.10;91.08;96003.69;5153575;27;20272;-64
2021/04/16 02:11:15;;;;;;;14.03;9.33;;;;;;;-1.02;90.69;96000.84;5153564;27;20190;-63
2021/04/16 02:13:42;;;;;;;16.70;10.73;;;;;;;-1.04;90.03;96000.28;5153838;27;20226;-64
2021/04/16 02:16:09;;;;;;;16.63;9.63;;;;;;;-1.08;90.19;96001.69;5153251;27;20241;-64
2021/04/16 02:18:36;;;;;;;16.53;10.00;;;;;;;-1.04;90.61;96002.81;5153408;27;20242;-61
2021/04/16 02:21:03;;;;;;;16.93;11.07;;;;;;;-1.06;90.09;95998.94;5153287;27;20192;-63
2021/04/16 02:23:30;;;;;;;14.90;9.60;;;;;;;-1.10;89.89;96003.69;5153192;27;20233;-64
2021/04/16 02:25:57;;;;;;;16.20;9.53;;;;;;;-1.10;89.53;96008.00;5153557;27;20590;-63
2021/04/16 02:28:24;;;;;;;15.73;8.83;;;;;;;-0.96;89.70;96005.13;5153484;27;20212;-64
2021/04/16 02:30:52;;;;;;;14.63;9.13;;;;;;;-0.87;90.26;96003.88;5153088;27;20189;-63
2021/04/16 02:33:18;;;;;;;14.30;9.27;;;;;;;-0.83;90.63;95998.34;5153075;27;20193;-63
2021/04/16 02:35:45;;;;;;;13.47;9.13;;;;;;;-0.84;90.61;96002.66;5152799;27;20220;-63
2021/04/16 02:38:12;;;;;;;32.63;15.13;;;;;;;-0.93;90.83;96014.13;5153128;27;20205;-63
2021/04/16 02:40:39;;;;;;;23.63;13.47;;;;;;;-0.96;90.85;96002.59;5153285;27;20190;-62
2021/04/16 02:43:08;;;;;;;20.93;11.57;;;;;;;-0.91;90.54;96000.19;5153060;27;20289;-63
2021/04/16 02:45:35;;;;;;;51.43;19.00;;;;;;;-0.98;90.09;96009.66;5153124;27;20551;-62
2021/04/16 02:48:03;;;;;;;35.87;16.47;;;;;;;-0.94;91.15;96008.25;5152708;27;20186;-63
2021/04/16 02:50:32;;;;;;;43.20;18.47;;;;;;;-0.87;91.17;96015.84;5152848;27;20204;-62
2021/04/16 02:52:59;;;;;;;32.23;14.70;;;;;;;-0.77;91.59;96012.81;5152574;27;20220;-62
2021/04/16 02:55:26;;;;;;;26.77;13.80;;;;;;;-0.72;91.12;96016.31;5153083;27;20308;-61
2021/04/16 02:57:53;;;;;;;25.33;12.13;;;;;;;-0.68;91.00;96022.56;5152585;27;20197;-62
2021/04/16 03:00:23;;;;;;;19.33;10.50;;;;;;;-0.69;91.10;96010.00;5152835;27;20189;-62
2021/04/16 03:02:50;;;;;;;15.60;9.23;;;;;;;-0.60;90.99;96011.31;5152417;27;20189;-63
2021/04/16 03:05:18;;;;;;;15.77;8.70;;;;;;;-0.54;90.49;96018.91;5152456;27;20746;-62
2021/04/16 03:07:45;;;;;;;13.97;8.20;;;;;;;-0.52;90.51;96003.38;5152590;27;20197;-62
2021/04/16 03:10:14;;;;;;;13.13;8.40;;;;;;;-0.55;90.16;96003.81;5152360;27;20196;-63
2021/04/16 03:12:41;;;;;;;19.97;10.87;;;;;;;-0.55;90.28;96002.00;5152326;27;20740;-63
2021/04/16 03:15:09;;;;;;;14.33;9.33;;;;;;;-0.59;90.22;96005.19;5152067;27;20221;-63
2021/04/16 03:17:36;;;;;;;19.37;9.57;;;;;;;-0.68;90.32;96009.00;5152146;27;20660;-64
2021/04/16 03:20:05;;;;;;;17.50;10.00;;;;;;;-0.70;90.20;96013.56;5152110;27;20679;-64
2021/04/16 03:22:33;;;;;;;18.17;11.07;;;;;;;-0.67;90.70;96020.78;5152447;27;20222;-64
2021/04/16 03:25:00;;;;;;;20.10;11.10;;;;;;;-0.74;90.06;96022.59;5151988;27;20285;-64
2021/04/16 03:27:27;;;;;;;17.70;10.93;;;;;;;-0.79;89.95;96025.78;5152268;27;20335;-64
2021/04/16 03:29:54;;;;;;;19.17;11.13;;;;;;;-0.80;89.51;96028.56;5151960;27;20290;-63
2021/04/16 03:32:21;;;;;;;27.27;13.20;;;;;;;-0.90;89.14;96024.69;5151670;27;20293;-61
2021/04/16 03:34:47;;;;;;;27.77;14.17;;;;;;;-0.80;89.80;96031.13;5151983;27;20246;-63
2021/04/16 03:37:15;;;;;;;22.47;13.13;;;;;;;-0.75;89.97;96029.50;5152024;27;20257;-63
2021/04/16 03:39:42;;;;;;;30.80;15.70;;;;;;;-0.71;89.87;96032.41;5151822;27;20233;-62
2021/04/16 03:42:09;;;;;;;19.37;12.17;;;;;;;-0.75;90.38;96028.72;5151421;27;20572;-63
2021/04/16 03:44:36;;;;;;;23.63;13.23;;;;;;;-0.70;91.08;96032.22;5131411;27;20231;-63
2021/04/16 03:47:03;;;;;;;21.53;13.13;;;;;;;-0.60;91.37;96035.03;5087858;28;20681;-64
2021/04/16 03:49:30;;;;;;;31.33;15.70;;;;;;;-0.55;90.49;96032.63;5089173;28;20192;-64
2021/04/16 03:51:59;;;;;;;25.00;15.03;;;;;;;-0.57;90.49;96039.75;5089488;28;20619;-64
2021/04/16 03:54:26;;;;;;;24.77;14.00;;;;;;;-0.50;90.32;96039.69;5089287;28;20261;-63
2021/04/16 03:56:54;;;;;;;28.37;18.77;;;;;;;-0.56;90.21;96037.97;5088948;28;20203;-64
2021/04/16 03:59:23;;;;;;;29.00;17.43;;;;;;;-0.57;90.33;96037.19;5089010;28;20198;-64
2021/04/16 04:01:50;;;;;;;18.73;13.03;;;;;;;-0.53;90.37;96037.53;5089365;28;20204;-63
2021/04/16 04:04:18;;;;;;;17.10;12.30;;;;;;;-0.42;90.22;96039.41;5089107;28;20230;-62
2021/04/16 04:06:47;;;;;;;19.37;12.17;;;;;;;-0.40;89.30;96042.53;5088672;28;20622;-64
2021/04/16 04:09:14;;;;;;;16.10;10.60;;;;;;;-0.43;88.83;96040.41;5089146;28;20279;-63
2021/04/16 04:11:41;;;;;;;14.60;9.30;;;;;;;-0.39;89.11;96038.97;5089102;28;20761;-64
2021/04/16 04:14:09;;;;;;;14.93;9.20;;;;;;;-0.27;88.72;96042.41;5088593;28;20247;-64
2021/04/16 04:16:49;;;;;;;17.47;9.13;;;;;;;-0.20;89.06;96050.75;5088967;28;20370;-64
2021/04/16 04:19:15;;;;;;;16.90;10.10;;;;;;;0.12;88.34;96048.09;5088940;28;20191;-65
2021/04/16 04:21:43;;;;;;;20.30;11.03;;;;;;;0.27;87.79;96053.63;5088776;28;20195;-64
2021/04/16 04:24:10;;;;;;;18.63;11.43;;;;;;;0.64;85.85;96047.47;5088910;28;20242;-65
2021/04/16 04:26:36;;;;;;;30.30;10.80;;;;;;;0.94;84.20;96052.56;5088629;28;20223;-65
2021/04/16 04:29:03;;;;;;;26.27;10.67;;;;;;;1.43;82.60;96051.41;5095686;28;20589;-66
2021/04/16 04:31:31;;;;;;;30.90;12.33;;;;;;;1.87;79.61;96054.41;5109318;28;20281;-65
2021/04/16 04:33:58;;;;;;;24.27;10.90;;;;;;;2.20;78.69;96061.47;5107582;28;20205;-62
2021/04/16 04:36:25;;;;;;;26.63;12.27;;;;;;;2.22;77.05;96055.13;5107547;28;20343;-65
2021/04/16 04:38:52;;;;;;;24.73;13.57;;;;;;;2.75;76.58;96049.72;5108856;28;20193;-63
2021/04/16 04:41:19;;;;;;;17.33;10.60;;;;;;;3.22;75.46;96055.41;5106458;28;20661;-64
2021/04/16 04:43:46;;;;;;;18.67;10.80;;;;;;;3.29;73.99;96061.13;5100193;28;20653;-67
2021/04/16 04:46:13;;;;;;;16.17;9.63;;;;;;;3.50;73.66;96064.03;5088992;28;20218;-62
2021/04/16 04:48:41;;;;;;;19.00;11.93;;;;;;;3.55;73.76;96059.75;5088721;28;20239;-65
2021/04/16 04:51:08;;;;;;;18.90;11.93;;;;;;;3.49;72.91;96059.91;5087769;28;20235;-64
2021/04/16 04:53:35;;;;;;;20.93;10.47;;;;;;;3.56;72.69;96073.38;5087254;28;20226;-63
2021/04/16 04:56:02;;;;;;;18.67;10.47;;;;;;;3.35;73.74;96070.50;5088585;28;20227;-64
2021/04/16 04:58:29;;;;;;;16.03;10.00;;;;;;;3.30;75.29;96067.06;5089445;28;20764;-64
2021/04/16 05:00:55;;;;;;;15.83;9.27;;;;;;;3.48;74.54;96066.84;5092555;28;20603;-64
2021/04/16 05:03:22;;;;;;;13.70;7.40;;;;;;;3.74;72.58;96065.41;5092318;28;20889;-64
2021/04/16 05:05:50;;;;;;;11.20;8.00;;;;;;;4.23;71.79;96072.22;5092153;28;20668;-64
2021/04/16 05:08:16;;;;;;;20.40;8.80;;;;;;;4.48;69.66;96068.44;5091830;28;20496;-64
2021/04/16 05:10:43;;;;;;;24.87;10.97;;;;;;;4.31;70.89;96076.19;5092271;28;20196;-64
2021/04/16 05:13:10;;;;;;;19.97;9.67;;;;;;;4.26;70.27;96076.91;5092117;28;20208;-64
2021/04/16 05:15:37;;;;;;;17.93;9.97;;;;;;;4.12;70.92;96074.94;5091440;28;20329;-63
2021/04/16 05:18:04;;;;;;;23.30;11.27;;;;;;;3.96;71.42;96078.31;5091905;28;20278;-63
2021/04/16 05:20:31;;;;;;;61.70;43.63;;;;;;;3.83;73.63;96082.00;5091783;28;20192;-63
2021/04/16 05:22:59;;;;;;;216.93;153.77;;;;;;;3.85;74.17;96079.97;5091160;28;20252;-63
2021/04/16 05:25:25;;;;;;;130.97;97.87;;;;;;;3.90;74.65;96077.47;5091289;28;20226;-64
2021/04/16 05:27:52;;;;;;;47.00;31.60;;;;;;;3.99;73.90;96077.81;5091864;28;20188;-64
2021/04/16 05:30:19;;;;;;;29.57;17.70;;;;;;;3.99;73.57;96076.03;5092229;28;20265;-64
2021/04/16 05:32:47;;;;;;;17.50;11.50;;;;;;;4.06;74.48;96081.81;5091838;28;20278;-63
2021/04/16 05:35:15;;;;;;;15.97;10.73;;;;;;;4.05;75.54;96079.47;5090758;28;20206;-63
2021/04/16 05:37:43;;;;;;;17.30;11.47;;;;;;;3.87;77.16;96078.72;5091446;28;20200;-64
2021/04/16 05:40:12;;;;;;;18.70;11.53;;;;;;;3.96;77.45;96073.16;5091446;28;20244;-64
2021/04/16 05:42:38;;;;;;;16.40;10.80;;;;;;;4.04;77.53;96073.53;5091247;28;20249;-62
2021/04/16 05:45:07;;;;;;;21.30;11.87;;;;;;;4.18;76.04;96079.91;5091076;28;20784;-64
2021/04/16 05:47:35;;;;;;;16.17;11.60;;;;;;;4.21;77.06;96074.28;5091123;28;20217;-63
2021/04/16 05:50:02;;;;;;;20.73;11.80;;;;;;;4.34;78.55;96078.28;5088847;28;20214;-63
2021/04/16 05:52:29;;;;;;;13.87;9.50;;;;;;;4.54;77.77;96080.31;5088938;28;20203;-65
2021/04/16 05:54:56;;;;;;;11.50;8.93;;;;;;;4.56;75.74;96073.16;5089352;28;20306;-64
2021/04/16 05:57:23;;;;;;;11.67;8.70;;;;;;;4.71;75.96;96075.88;5088543;28;20207;-63
2021/04/16 05:59:50;;;;;;;13.10;9.10;;;;;;;4.75;75.67;96082.09;5090580;28;20656;-63
2021/04/16 06:02:25;;;;;;;12.53;9.00;;;;;;;4.67;73.55;96077.41;5090458;28;20292;-63
2021/04/16 06:04:53;;;;;;;17.50;9.90;;;;;;;4.81;74.73;96067.50;5090336;28;20345;-63
2021/04/16 06:07:20;;;;;;;14.33;9.67;;;;;;;5.01;74.67;96078.78;5090591;28;20206;-63
2021/04/16 06:09:48;;;;;;;12.10;8.80;;;;;;;5.14;72.52;96075.78;5089787;28;20203;-61
2021/04/16 06:12:16;;;;;;;12.67;9.17;;;;;;;5.16;73.11;96068.63;5091177;28;20690;-63
2021/04/16 06:14:44;;;;;;;16.93;9.20;;;;;;;5.43;74.10;96062.66;5085669;28;20600;-65
2021/04/16 06:17:11;;;;;;;9.67;7.90;;;;;;;5.50;69.16;96061.41;5069828;28;20204;-64
2021/04/16 06:19:38;;;;;;;11.83;8.20;;;;;;;5.66;68.99;96058.94;5070459;28;20286;-65
2021/04/16 06:22:05;;;;;;;12.00;8.23;;;;;;;5.68;66.86;96060.22;5089765;28;20283;-64
2021/04/16 06:24:32;;;;;;;10.77;7.57;;;;;;;5.76;67.31;96070.09;5089248;28;20294;-65
2021/04/16 06:26:59;;;;;;;11.27;7.80;;;;;;;5.98;63.26;96075.94;5090959;28;20713;-65
2021/04/16 06:29:26;;;;;;;10.20;7.87;;;;;;;6.08;63.57;96071.88;5090424;28;20734;-65
2021/04/16 06:31:54;;;;;;;9.13;7.40;;;;;;;6.18;63.29;96059.00;5090989;28;20278;-64
2021/04/16 06:34:21;;;;;;;9.80;7.50;;;;;;;6.07;61.99;96060.78;5090959;28;20580;-65
2021/04/16 06:36:49;;;;;;;12.73;7.50;;;;;;;6.13;62.65;96059.00;5088719;28;20210;-64
2021/04/16 06:39:16;;;;;;;10.93;7.97;;;;;;;6.23;62.45;96059.78;5090643;28;20237;-64
2021/04/16 06:41:46;;;;;;;10.53;8.00;;;;;;;6.13;61.18;96059.00;5090668;28;20206;-63
2021/04/16 06:44:19;;;;;;;10.17;7.87;;;;;;;6.17;62.73;96049.72;5089572;28;20231;-64
2021/04/16 06:46:51;;;;;;;9.37;6.73;;;;;;;6.28;61.46;96061.63;5090469;28;20622;-63
2021/04/16 06:49:22;;;;;;;11.73;7.43;;;;;;;6.26;60.00;96056.72;5090558;28;20199;-62
2021/04/16 06:52:01;;;;;;;9.77;7.03;;;;;;;6.14;57.72;96063.09;5088983;28;20216;-64
2021/04/16 06:54:42;;;;;;;8.40;5.97;;;;;;;6.25;57.99;96065.50;5089796;28;20696;-65
2021/04/16 06:57:22;;;;;;;10.47;6.47;;;;;;;6.46;56.16;96056.03;5089839;28;20189;-64
2021/04/16 07:00:00;;;;;;;9.63;6.83;;;;;;;6.34;59.79;96060.63;5090338;28;20199;-64
2021/04/16 07:02:35;;;;;;;9.10;6.83;;;;;;;6.21;58.68;96055.94;5089819;28;20191;-63
2021/04/16 07:05:05;;;;;;;8.87;6.33;;;;;;;6.36;58.05;96058.59;5088971;28;20284;-63
2021/04/16 07:07:36;;;;;;;10.73;6.40;;;;;;;6.82;56.97;96056.94;5089358;28;20582;-64
2021/04/16 07:10:07;;;;;;;9.90;7.17;;;;;;;6.60;55.88;96064.88;5089967;28;20205;-64
2021/04/16 07:12:34;;;;;;;8.10;6.30;;;;;;;6.98;57.05;96062.88;5089608;28;20194;-63
2021/04/16 07:15:05;;;;;;;8.43;6.40;;;;;;;6.68;56.21;96072.09;5089741;28;20323;-64
2021/04/16 07:17:38;;;;;;;14.00;6.77;;;;;;;6.80;56.19;96064.13;5089877;28;20192;-64
2021/04/16 07:20:08;;;;;;;11.17;7.30;;;;;;;6.69;56.96;96072.88;5088916;28;20200;-64
2021/04/16 07:22:40;;;;;;;9.80;6.90;;;;;;;6.76;57.89;96060.53;5088922;28;20282;-63
2021/04/16 07:25:22;;;;;;;9.17;6.50;;;;;;;6.93;56.33;96071.41;5089410;28;20223;-65
2021/04/16 07:27:50;;;;;;;10.37;7.33;;;;;;;6.81;56.97;96069.06;5089141;28;20201;-63
2021/04/16 07:30:38;;;;;;;8.17;6.70;;;;;;;7.19;58.91;96061.88;5089814;28;20726;-63
2021/04/16 07:33:32;;;;;;;7.53;5.80;;;;;;;7.59;55.48;96063.69;5089781;28;20287;-65
2021/04/16 07:36:28;;;;;;;10.50;6.83;;;;;;;7.22;53.73;96066.56;5088217;28;20199;-63
2021/04/16 07:39:20;;;;;;;10.40;6.27;;;;;;;7.22;54.09;96069.88;5087716;28;20652;-65
2021/04/16 07:41:49;;;;;;;9.63;6.00;;;;;;;7.35;54.56;96060.84;5088644;28;20286;-63
2021/04/16 07:44:19;;;;;;;8.33;6.17;;;;;;;7.83;54.73;96067.28;5089476;28;20271;-63
2021/04/16 07:46:49;;;;;;;6.50;5.77;;;;;;;7.78;52.00;96062.13;5087852;28;20234;-64
2021/04/16 07:49:29;;;;;;;7.87;5.93;;;;;;;7.92;54.81;96062.38;5088554;28;20279;-63
2021/04/16 07:51:58;;;;;;;8.60;6.00;;;;;;;8.06;52.13;96065.97;5089627;28;20623;-64
2021/04/16 07:54:29;;;;;;;14.00;6.80;;;;;;;8.00;51.31;96069.59;5088841;28;20281;-64
2021/04/16 07:57:18;;;;;;;5.87;5.23;;;;;;;8.14;50.06;96068.78;5083682;28;20812;-63
2021/04/16 08:00:01;;;;;;;7.57;6.23;;;;;;;8.29;53.53;96064.59;5069364;28;20200;-63
2021/04/16 08:02:34;;;;;;;9.20;5.67;;;;;;;8.60;54.00;96061.66;5069326;28;20204;-63
2021/04/16 08:05:14;;;;;;;9.40;6.03;;;;;;;8.43;49.55;96076.75;5068892;28;20228;-65
2021/04/16 08:07:40;;;;;;;9.30;6.23;;;;;;;7.95;51.00;96074.78;5088554;28;20237;-62
2021/04/16 08:10:18;;;;;;;8.63;5.90;;;;;;;7.85;51.51;96070.41;5089166;28;20203;-63
2021/04/16 08:12:45;;;;;;;7.60;5.97;;;;;;;8.25;51.99;96073.94;5088724;28;20283;-63
2021/04/16 08:15:14;;;;;;;8.87;5.70;;;;;;;8.41;49.13;96078.06;5088773;28;20224;-62
2021/04/16 08:17:42;;;;;;;5.43;4.60;;;;;;;8.48;49.18;96081.91;5089143;28;20196;-62
2021/04/16 08:20:29;;;;;;;8.57;4.60;;;;;;;8.08;48.22;96067.25;5088325;28;20248;-62
2021/04/16 08:22:58;;;;;;;6.17;4.97;;;;;;;8.27;50.00;96066.69;5088724;28;20695;-64
2021/04/16 08:25:37;;;;;;;6.70;4.63;;;;;;;8.12;48.49;96075.25;5087319;28;20785;-64
2021/04/16 08:28:08;;;;;;;7.23;5.37;;;;;;;8.47;50.94;96067.41;5068615;28;20196;-63
2021/04/16 08:30:45;;;;;;;6.50;5.30;;;;;;;8.85;49.57;96072.94;5068965;28;20208;-63
2021/04/16 08:33:21;;;;;;;7.50;4.87;;;;;;;8.55;47.52;96072.03;5069394;28;20204;-63
2021/04/16 08:35:56;;;;;;;6.47;4.60;;;;;;;8.77;48.83;96065.72;5078334;28;20437;-63
2021/04/16 08:38:26;;;;;;;7.33;4.67;;;;;;;8.66;48.09;96069.41;5092716;28;20238;-64
2021/04/16 08:40:59;;;;;;;6.60;4.80;;;;;;;8.80;45.86;96068.56;5092391;28;20710;-61
2021/04/16 08:43:33;;;;;;;10.13;4.90;;;;;;;9.17;50.91;96060.28;5092862;28;20249;-63
2021/04/16 08:46:01;;;;;;;5.23;4.30;;;;;;;9.47;47.32;96065.25;5092504;28;20666;-64
2021/04/16 08:48:34;;;;;;;7.07;4.77;;;;;;;9.34;46.64;96049.53;5091507;28;20290;-64
2021/04/16 08:51:06;;;;;;;7.67;4.83;;;;;;;9.19;45.52;96052.25;5092632;28;20545;-64
2021/04/16 08:53:32;;;;;;;6.27;4.60;;;;;;;9.23;48.64;96048.84;5093087;28;20260;-62
2021/04/16 08:56:14;;;;;;;9.07;5.60;;;;;;;9.85;48.81;96045.47;5091676;28;20722;-63
2021/04/16 08:58:42;;;;;;;9.20;5.23;;;;;;;10.10;47.37;96041.84;5092364;28;20208;-62
2021/04/16 09:01:15;;;;;;;5.40;3.77;;;;;;;10.05;44.79;96036.72;5092523;28;20203;-62
2021/04/16 09:03:47;;;;;;;7.13;3.73;;;;;;;9.44;47.55;96026.91;5091913;28;20310;-62
2021/04/16 09:06:44;;;;;;;6.87;3.90;;;;;;;9.80;45.94;96024.75;5101344;28;20199;-62
2021/04/16 09:09:35;;;;;;;7.33;4.50;;;;;;;9.42;42.83;96023.00;5112119;27;20202;-63
2021/04/16 09:12:03;;;;;;;4.60;3.67;;;;;;;9.82;43.47;96019.28;5112022;28;20195;-64
2021/04/16 09:14:52;;;;;;;5.33;3.80;;;;;;;9.91;42.30;96012.47;5112240;28;20266;-64
2021/04/16 09:17:20;;;;;;;5.07;3.63;;;;;;;10.23;43.84;95999.66;5112985;28;20201;-64
2021/04/16 09:20:01;;;;;;;4.80;3.50;;;;;;;10.09;41.76;95996.16;5112407;28;20271;-64
2021/04/16 09:22:42;;;;;;;6.93;3.60;;;;;;;10.09;41.35;95992.78;5110866;28;20195;-63
2021/04/16 09:25:43;;;;;;;5.17;3.43;;;;;;;10.15;41.83;95995.06;5111890;28;20234;-63
2021/04/16 09:28:36;;;;;;;6.13;3.40;;;;;;;10.19;42.04;96003.84;5112396;28;20249;-63
2021/04/16 09:31:05;;;;;;;4.20;3.10;;;;;;;10.02;39.24;95994.94;5112252;28;20247;-62
2021/04/16 09:33:46;;;;;;;5.50;3.33;;;;;;;10.15;38.64;95987.25;5111947;28;20191;-63
2021/04/16 09:36:33;;;;;;;4.67;3.27;;;;;;;10.19;40.05;95996.06;5111041;28;20199;-63
2021/04/16 09:39:12;;;;;;;4.90;3.70;;;;;;;10.38;40.30;95985.69;5111688;28;20203;-63
2021/04/16 09:41:41;;;;;;;4.37;3.57;;;;;;;10.25;41.44;95989.00;5111780;28;20195;-64
2021/04/16 09:44:35;;;;;;;6.20;4.10;;;;;;;10.27;38.42;95989.47;5111815;28;20313;-61
2021/04/16 09:47:04;;;;;;;28.10;17.27;;;;;;;10.46;39.79;95979.13;5111308;28;20737;-64
2021/04/16 09:49:36;;;;;;;5.63;4.17;;;;;;;10.92;40.32;95980.00;5111742;28;20206;-61
2021/04/16 09:52:36;;;;;;;5.17;3.10;;;;;;;10.45;39.51;95974.97;5109528;28;20199;-64
2021/04/16 09:55:45;;;;;;;7.97;4.13;;;;;;;10.83;40.60;95968.72;5111393;28;20211;-62
2021/04/16 09:58:13;;;;;;;4.93;3.27;;;;;;;10.93;38.48;95965.97;5111553;28;20299;-63
2021/04/16 10:01:06;;;;;;;6.93;3.77;;;;;;;11.03;37.66;95954.63;5111602;28;20191;-62
2021/04/16 10:03:48;;;;;;;4.20;3.00;;;;;;;11.16;39.19;95959.09;5109890;28;20203;-63
2021/04/16 10:06:21;;;;;;;3.67;2.67;;;;;;;11.20;36.42;95949.69;5110589;28;20678;-63
2021/04/16 10:09:04;;;;;;;8.70;4.03;;;;;;;11.64;39.00;95949.19;5111361;27;20286;-63
2021/04/16 10:11:32;;;;;;;9.00;4.67;;;;;;;11.42;37.15;95956.84;5111558;28;20195;-63
2021/04/16 10:14:15;;;;;;;4.93;2.90;;;;;;;11.18;37.03;95962.97;5111510;28;20201;-63
2021/04/16 10:16:44;;;;;;;4.20;3.30;;;;;;;11.16;38.44;95957.25;5111169;28;20289;-63
2021/04/16 10:19:15;;;;;;;9.60;5.00;;;;;;;11.26;37.32;95950.38;5111642;28;20821;-63
2021/04/16 10:21:42;;;;;;;5.03;2.90;;;;;;;11.52;38.21;95948.88;5110704;28;20294;-63
2021/04/16 12:39:40;;;;;;;3.30;2.23;;;;;;;13.20;28.68;95814.63;5092884;28;20260;-62
2021/04/16 12:42:07;;;;;;;4.63;2.13;;;;;;;12.93;30.33;95807.75;5092765;28;20629;-61
2021/04/16 12:44:37;;;;;;;4.97;2.33;;;;;;;13.16;30.29;95811.09;5092447;28;20255;-62
2021/04/16 12:47:07;;;;;;;7.60;3.60;;;;;;;12.93;30.17;95807.75;5092087;28;20195;-62
2021/04/16 12:49:34;;;;;;;59.13;18.60;;;;;;;13.09;30.97;95802.13;5092591;28;20634;-63
2021/04/16 12:52:02;;;;;;;4.80;2.40;;;;;;;13.00;28.18;95804.69;5091844;28;20200;-62
2021/04/16 12:54:29;;;;;;;4.18;2.63;;;;;;;12.94;29.42;95798.84;5091154;28;20446;-64
2021/04/16 12:56:56;;;;;;;3.30;2.50;;;;;;;13.01;29.82;95792.41;5092532;28;20634;-63
2021/04/16 12:59:24;;;;;;;5.27;2.17;;;;;;;13.21;31.11;95797.13;5092138;28;20654;-63
2021/04/16 13:01:53;;;;;;;3.33;2.40;;;;;;;13.26;29.42;95791.78;5092418;28;20253;-62
2021/04/16 13:04:24;;;;;;;4.73;2.40;;;;;;;13.36;27.98;95797.50;5092404;28;20326;-61
2021/04/16 13:06:54;;;;;;;6.33;2.50;;;;;;;13.56;28.76;95798.78;5091583;28;20650;-62
2021/04/16 13:09:20;;;;;;;2.93;2.00;;;;;;;13.44;28.03;95798.59;5091863;28;20195;-63
2021/04/16 13:11:48;;;;;;;5.83;3.10;;;;;;;13.29;31.38;95796.41;5091984;28;20192;-62
2021/04/16 13:14:15;;;;;;;8.57;3.90;;;;;;;13.23;32.14;95789.78;5092434;28;20232;-64
2021/04/16 13:16:42;;;;;;;5.40;2.57;;;;;;;13.05;30.67;95794.13;5091518;28;20346;-65
2021/04/16 13:19:12;;;;;;;5.70;2.33;;;;;;;13.30;31.75;95798.69;5091364;28;20208;-61
2021/04/16 13:21:42;;;;;;;3.17;2.10;;;;;;;13.53;30.66;95788.94;5092066;28;20195;-64
2021/04/16 13:24:11;;;;;;;3.40;1.93;;;;;;;13.29;29.74;95793.81;5091780;28;20235;-62
2021/04/16 13:26:38;;;;;;;8.60;3.17;;;;;;;13.34;33.23;95780.59;5092074;28;20261;-62
2021/04/16 13:29:06;;;;;;;4.40;2.33;;;;;;;13.68;31.79;95785.91;5091831;28;20279;-63
2021/04/16 13:31:35;;;;;;;3.70;2.33;;;;;;;13.93;30.30;95792.22;5092022;28;20647;-62
2021/04/16 13:34:03;;;;;;;5.30;2.00;;;;;;;13.75;28.90;95788.81;5091899;28;20557;-63
2021/04/16 13:36:31;;;;;;;5.43;2.40;;;;;;;13.68;29.89;95775.47;5090425;28;20206;-65
2021/04/16 13:39:01;;;;;;;4.33;2.13;;;;;;;13.49;29.44;95782.81;5091711;28;20222;-61
2021/04/16 13:41:28;;;;;;;4.33;2.47;;;;;;;13.20;29.40;95785.19;5091894;28;20207;-63
2021/04/16 13:43:56;;;;;;;5.00;2.10;;;;;;;13.22;29.27;95783.00;5091402;28;20280;-66
2021/04/16 13:46:26;;;;;;;6.10;2.57;;;;;;;13.62;31.02;95781.91;5091241;28;20227;-63
2021/04/16 13:48:54;;;;;;;4.23;2.00;;;;;;;13.42;29.32;95777.25;5091572;28;20215;-63
2021/04/16 13:51:22;;;;;;;3.27;1.90;;;;;;;13.49;27.66;95774.19;5090112;28;20207;-63
2021/04/16 13:53:49;;;;;;;5.57;2.83;;;;;;;13.40;28.69;95779.38;5091357;28;20544;-63
2021/04/16 13:56:17;;;;;;;4.47;2.07;;;;;;;13.60;28.71;95775.44;5091553;28;20220;-63
2021/04/16 13:58:44;;;;;;;3.50;2.33;;;;;;;13.93;29.28;95765.34;5091042;28;20199;-63